sensor_id;sensor_type;location;lat;lon;timestamp;temperature;humidity
14585;DHT22;7379;51.506;11.876;2022-09-30T00:00:18;11.50;95.90
14585;DHT22;7379;51.506;11.876;2022-09-30T00:02:45;11.50;95.90
14585;DHT22;7379;51.506;11.876;2022-09-30T00:05:12;11.50;95.90
14585;DHT22;7379;51.506;11.876;2022-09-30T00:07:40;11.50;95.90
14585;DHT22;7379;51.506;11.876;2022-09-30T00:10:08;11.40;95.90
14585;DHT22;7379;51.506;11.876;2022-09-30T00:12:34;11.40;95.90
14585;DHT22;7379;51.506;11.876;2022-09-30T00:15:02;11.40;95.90
14585;DHT22;7379;51.506;11.876;2022-09-30T00:17:28;11.40;96.00
14585;DHT22;7379;51.506;11.876;2022-09-30T00:19:55;11.40;95.90
14585;DHT22;7379;51.506;11.876;2022-09-30T00:22:22;11.40;95.90
14585;DHT22;7379;51.506;11.876;2022-09-30T00:24:50;11.40;95.90
14585;DHT22;7379;51.506;11.876;2022-09-30T00:27:17;11.40;95.90
14585;DHT22;7379;51.506;11.876;2022-09-30T00:29:44;11.40;95.90
14585;DHT22;7379;51.506;11.876;2022-09-30T00:32:11;11.30;95.90
14585;DHT22;7379;51.506;11.876;2022-09-30T00:34:38;11.30;95.90
14585;DHT22;7379;51.506;11.876;2022-09-30T00:37:05;11.30;95.90
14585;DHT22;7379;51.506;11.876;2022-09-30T00:39:33;11.30;95.90
14585;DHT22;7379;51.506;11.876;2022-09-30T00:42:03;11.30;95.90
14585;DHT22;7379;51.506;11.876;2022-09-30T00:44:51;11.30;95.90
14585;DHT22;7379;51.506;11.876;2022-09-30T00:47:34;11.30;96.00
14585;DHT22;7379;51.506;11.876;2022-09-30T00:50:05;11.30;96.00
14585;DHT22;7379;51.506;11.876;2022-09-30T00:52:35;11.30;96.00
14585;DHT22;7379;51.506;11.876;2022-09-30T00:55:07;11.30;96.00
14585;DHT22;7379;51.506;11.876;2022-09-30T00:57:36;11.20;96.00
14585;DHT22;7379;51.506;11.876;2022-09-30T01:00:04;11.30;96.00
14585;DHT22;7379;51.506;11.876;2022-09-30T01:02:31;11.20;96.00
14585;DHT22;7379;51.506;11.876;2022-09-30T01:04:58;11.20;96.00
14585;DHT22;7379;51.506;11.876;2022-09-30T01:07:25;11.20;95.90
14585;DHT22;7379;51.506;11.876;2022-09-30T01:09:52;11.20;95.90
14585;DHT22;7379;51.506;11.876;2022-09-30T01:12:21;11.20;95.90
14585;DHT22;7379;51.506;11.876;2022-09-30T01:14:52;11.20;96.00
14585;DHT22;7379;51.506;11.876;2022-09-30T01:17:28;11.20;95.90
14585;DHT22;7379;51.506;11.876;2022-09-30T01:23:19;11.20;96.00
14585;DHT22;7379;51.506;11.876;2022-09-30T01:26:15;11.20;95.90
14585;DHT22;7379;51.506;11.876;2022-09-30T01:29:15;11.10;95.90
14585;DHT22;7379;51.506;11.876;2022-09-30T01:31:55;11.10;95.80
14585;DHT22;7379;51.506;11.876;2022-09-30T01:34:35;11.10;95.90
14585;DHT22;7379;51.506;11.876;2022-09-30T01:37:12;11.10;95.90
14585;DHT22;7379;51.506;11.876;2022-09-30T01:39:49;11.10;95.90
14585;DHT22;7379;51.506;11.876;2022-09-30T01:42:22;11.10;95.90
14585;DHT22;7379;51.506;11.876;2022-09-30T01:44:56;11.10;95.80
14585;DHT22;7379;51.506;11.876;2022-09-30T01:47:31;11.10;95.90
14585;DHT22;7379;51.506;11.876;2022-09-30T01:50:03;11.10;95.90
14585;DHT22;7379;51.506;11.876;2022-09-30T01:52:35;11.00;95.90
14585;DHT22;7379;51.506;11.876;2022-09-30T01:55:08;11.00;95.80
14585;DHT22;7379;51.506;11.876;2022-09-30T01:57:41;11.00;95.80
14585;DHT22;7379;51.506;11.876;2022-09-30T02:00:11;11.00;95.80
14585;DHT22;7379;51.506;11.876;2022-09-30T02:02:43;11.00;95.80
14585;DHT22;7379;51.506;11.876;2022-09-30T02:05:16;11.00;95.80
14585;DHT22;7379;51.506;11.876;2022-09-30T02:07:46;11.00;95.70
14585;DHT22;7379;51.506;11.876;2022-09-30T02:10:16;11.00;95.80
14585;DHT22;7379;51.506;11.876;2022-09-30T02:12:48;11.00;95.80
14585;DHT22;7379;51.506;11.876;2022-09-30T02:15:21;10.90;95.70
14585;DHT22;7379;51.506;11.876;2022-09-30T02:17:53;10.90;95.70
14585;DHT22;7379;51.506;11.876;2022-09-30T02:20:25;11.00;95.80
14585;DHT22;7379;51.506;11.876;2022-09-30T02:22:57;10.90;95.80
14585;DHT22;7379;51.506;11.876;2022-09-30T02:25:30;10.90;95.80
14585;DHT22;7379;51.506;11.876;2022-09-30T02:28:00;10.90;95.80
14585;DHT22;7379;51.506;11.876;2022-09-30T02:30:30;10.90;95.80
14585;DHT22;7379;51.506;11.876;2022-09-30T02:33:02;10.90;95.80
14585;DHT22;7379;51.506;11.876;2022-09-30T02:35:33;10.80;95.80
14585;DHT22;7379;51.506;11.876;2022-09-30T02:38:02;10.80;95.80
14585;DHT22;7379;51.506;11.876;2022-09-30T02:40:34;10.90;95.90
14585;DHT22;7379;51.506;11.876;2022-09-30T02:43:04;10.90;95.90
14585;DHT22;7379;51.506;11.876;2022-09-30T02:45:37;10.80;95.80
14585;DHT22;7379;51.506;11.876;2022-09-30T02:48:17;10.80;95.90
14585;DHT22;7379;51.506;11.876;2022-09-30T02:50:51;10.90;95.90
14585;DHT22;7379;51.506;11.876;2022-09-30T02:53:24;10.80;95.90
14585;DHT22;7379;51.506;11.876;2022-09-30T02:56:03;10.80;95.80
14585;DHT22;7379;51.506;11.876;2022-09-30T02:58:33;10.80;95.90
14585;DHT22;7379;51.506;11.876;2022-09-30T03:01:01;10.80;95.90
14585;DHT22;7379;51.506;11.876;2022-09-30T03:03:32;10.80;95.90
14585;DHT22;7379;51.506;11.876;2022-09-30T03:06:00;10.80;96.00
14585;DHT22;7379;51.506;11.876;2022-09-30T03:08:27;10.80;95.90
14585;DHT22;7379;51.506;11.876;2022-09-30T03:10:54;10.80;95.90
14585;DHT22;7379;51.506;11.876;2022-09-30T03:16:24;10.70;95.90
14585;DHT22;7379;51.506;11.876;2022-09-30T03:19:13;10.70;95.80
14585;DHT22;7379;51.506;11.876;2022-09-30T03:22:03;10.70;95.90
14585;DHT22;7379;51.506;11.876;2022-09-30T03:27:53;10.70;95.90
14585;DHT22;7379;51.506;11.876;2022-09-30T03:30:25;10.70;95.90
14585;DHT22;7379;51.506;11.876;2022-09-30T03:33:04;10.70;95.90
14585;DHT22;7379;51.506;11.876;2022-09-30T03:35:41;10.70;95.90
14585;DHT22;7379;51.506;11.876;2022-09-30T03:38:14;10.70;95.90
14585;DHT22;7379;51.506;11.876;2022-09-30T03:40:52;10.60;95.80
14585;DHT22;7379;51.506;11.876;2022-09-30T03:43:26;10.60;95.80
14585;DHT22;7379;51.506;11.876;2022-09-30T03:45:59;10.60;95.80
14585;DHT22;7379;51.506;11.876;2022-09-30T03:48:28;10.60;95.80
14585;DHT22;7379;51.506;11.876;2022-09-30T03:50:58;10.60;95.90
14585;DHT22;7379;51.506;11.876;2022-09-30T03:53:26;10.60;95.80
14585;DHT22;7379;51.506;11.876;2022-09-30T03:55:53;10.60;95.80
14585;DHT22;7379;51.506;11.876;2022-09-30T03:58:21;10.60;95.80
14585;DHT22;7379;51.506;11.876;2022-09-30T04:00:49;10.50;95.80
14585;DHT22;7379;51.506;11.876;2022-09-30T04:03:18;10.50;95.80
14585;DHT22;7379;51.506;11.876;2022-09-30T04:05:45;10.50;95.80
14585;DHT22;7379;51.506;11.876;2022-09-30T04:08:14;10.50;95.80
14585;DHT22;7379;51.506;11.876;2022-09-30T04:10:41;10.50;95.90
14585;DHT22;7379;51.506;11.876;2022-09-30T04:13:10;10.50;95.90
14585;DHT22;7379;51.506;11.876;2022-09-30T04:15:37;10.50;95.80
14585;DHT22;7379;51.506;11.876;2022-09-30T04:18:05;10.50;95.80
14585;DHT22;7379;51.506;11.876;2022-09-30T04:20:32;10.50;95.80
14585;DHT22;7379;51.506;11.876;2022-09-30T04:22:59;10.50;95.90
14585;DHT22;7379;51.506;11.876;2022-09-30T04:25:27;10.50;95.90
14585;DHT22;7379;51.506;11.876;2022-09-30T04:27:55;10.50;96.10
14585;DHT22;7379;51.506;11.876;2022-09-30T04:30:21;10.50;95.80
14585;DHT22;7379;51.506;11.876;2022-09-30T04:32:48;10.40;95.80
14585;DHT22;7379;51.506;11.876;2022-09-30T04:35:15;10.50;95.80
14585;DHT22;7379;51.506;11.876;2022-09-30T04:37:42;10.40;95.80
14585;DHT22;7379;51.506;11.876;2022-09-30T04:40:10;10.40;95.70
14585;DHT22;7379;51.506;11.876;2022-09-30T04:42:38;10.40;95.70
14585;DHT22;7379;51.506;11.876;2022-09-30T04:45:08;10.40;95.80
14585;DHT22;7379;51.506;11.876;2022-09-30T04:47:35;10.40;95.70
14585;DHT22;7379;51.506;11.876;2022-09-30T04:50:03;10.40;95.70
14585;DHT22;7379;51.506;11.876;2022-09-30T04:52:30;10.40;95.70
14585;DHT22;7379;51.506;11.876;2022-09-30T04:54:56;10.40;95.70
14585;DHT22;7379;51.506;11.876;2022-09-30T04:57:23;10.40;95.70
14585;DHT22;7379;51.506;11.876;2022-09-30T04:59:52;10.40;96.00
14585;DHT22;7379;51.506;11.876;2022-09-30T05:02:19;10.30;95.70
14585;DHT22;7379;51.506;11.876;2022-09-30T05:04:46;10.30;95.60
14585;DHT22;7379;51.506;11.876;2022-09-30T05:07:13;10.30;95.60
14585;DHT22;7379;51.506;11.876;2022-09-30T05:09:40;10.30;95.60
14585;DHT22;7379;51.506;11.876;2022-09-30T05:12:06;10.30;95.60
14585;DHT22;7379;51.506;11.876;2022-09-30T05:14:33;10.30;95.60
14585;DHT22;7379;51.506;11.876;2022-09-30T05:17:01;10.30;95.50
14585;DHT22;7379;51.506;11.876;2022-09-30T05:19:28;10.30;95.60
14585;DHT22;7379;51.506;11.876;2022-09-30T05:21:55;10.20;95.50
14585;DHT22;7379;51.506;11.876;2022-09-30T05:24:22;10.30;95.50
14585;DHT22;7379;51.506;11.876;2022-09-30T05:26:49;10.30;95.50
14585;DHT22;7379;51.506;11.876;2022-09-30T05:29:15;10.20;95.50
14585;DHT22;7379;51.506;11.876;2022-09-30T05:31:42;10.30;95.50
14585;DHT22;7379;51.506;11.876;2022-09-30T05:34:10;10.30;95.60
14585;DHT22;7379;51.506;11.876;2022-09-30T05:36:37;10.20;95.50
14585;DHT22;7379;51.506;11.876;2022-09-30T05:39:04;10.20;95.50
14585;DHT22;7379;51.506;11.876;2022-09-30T05:41:31;10.20;95.60
14585;DHT22;7379;51.506;11.876;2022-09-30T05:43:57;10.20;95.60
14585;DHT22;7379;51.506;11.876;2022-09-30T05:46:25;10.20;95.50
14585;DHT22;7379;51.506;11.876;2022-09-30T05:48:52;10.20;95.60
14585;DHT22;7379;51.506;11.876;2022-09-30T05:51:21;10.20;95.60
14585;DHT22;7379;51.506;11.876;2022-09-30T05:53:48;10.20;95.60
14585;DHT22;7379;51.506;11.876;2022-09-30T05:56:16;10.20;95.60
14585;DHT22;7379;51.506;11.876;2022-09-30T05:58:42;10.20;95.60
14585;DHT22;7379;51.506;11.876;2022-09-30T06:01:11;10.20;95.60
14585;DHT22;7379;51.506;11.876;2022-09-30T06:03:38;10.20;95.60
14585;DHT22;7379;51.506;11.876;2022-09-30T06:06:05;10.20;95.70
14585;DHT22;7379;51.506;11.876;2022-09-30T06:08:34;10.20;95.70
14585;DHT22;7379;51.506;11.876;2022-09-30T06:11:07;10.10;95.60
14585;DHT22;7379;51.506;11.876;2022-09-30T06:13:35;10.10;95.60
14585;DHT22;7379;51.506;11.876;2022-09-30T06:16:02;10.10;95.60
14585;DHT22;7379;51.506;11.876;2022-09-30T06:18:30;10.20;95.70
14585;DHT22;7379;51.506;11.876;2022-09-30T06:20:57;10.10;95.60
14585;DHT22;7379;51.506;11.876;2022-09-30T06:23:24;10.10;95.70
14585;DHT22;7379;51.506;11.876;2022-09-30T06:25:53;10.10;95.70
14585;DHT22;7379;51.506;11.876;2022-09-30T06:28:21;10.20;95.80
14585;DHT22;7379;51.506;11.876;2022-09-30T06:30:48;10.10;95.70
14585;DHT22;7379;51.506;11.876;2022-09-30T06:33:15;10.10;95.70
14585;DHT22;7379;51.506;11.876;2022-09-30T06:35:42;10.10;95.70
14585;DHT22;7379;51.506;11.876;2022-09-30T06:38:11;10.10;95.70
14585;DHT22;7379;51.506;11.876;2022-09-30T06:40:40;10.10;95.70
14585;DHT22;7379;51.506;11.876;2022-09-30T06:43:08;10.10;95.80
14585;DHT22;7379;51.506;11.876;2022-09-30T06:45:36;10.10;95.80
14585;DHT22;7379;51.506;11.876;2022-09-30T06:48:04;10.10;95.80
14585;DHT22;7379;51.506;11.876;2022-09-30T06:50:32;10.10;95.80
14585;DHT22;7379;51.506;11.876;2022-09-30T06:53:01;10.10;95.80
14585;DHT22;7379;51.506;11.876;2022-09-30T06:55:29;10.10;95.80
14585;DHT22;7379;51.506;11.876;2022-09-30T06:57:56;10.00;96.10
14585;DHT22;7379;51.506;11.876;2022-09-30T07:00:25;10.00;95.90
14585;DHT22;7379;51.506;11.876;2022-09-30T07:02:53;10.10;95.90
14585;DHT22;7379;51.506;11.876;2022-09-30T07:05:21;10.00;95.80
14585;DHT22;7379;51.506;11.876;2022-09-30T07:07:49;10.00;95.90
14585;DHT22;7379;51.506;11.876;2022-09-30T07:10:17;10.10;95.90
14585;DHT22;7379;51.506;11.876;2022-09-30T07:12:47;10.00;95.90
14585;DHT22;7379;51.506;11.876;2022-09-30T07:15:14;10.10;95.90
14585;DHT22;7379;51.506;11.876;2022-09-30T07:17:42;10.10;95.90
14585;DHT22;7379;51.506;11.876;2022-09-30T07:20:09;10.10;95.90
14585;DHT22;7379;51.506;11.876;2022-09-30T07:22:36;10.10;96.00
14585;DHT22;7379;51.506;11.876;2022-09-30T07:25:03;10.10;95.90
14585;DHT22;7379;51.506;11.876;2022-09-30T07:27:32;10.10;96.00
14585;DHT22;7379;51.506;11.876;2022-09-30T07:29:59;10.10;96.00
14585;DHT22;7379;51.506;11.876;2022-09-30T07:32:26;10.10;96.00
14585;DHT22;7379;51.506;11.876;2022-09-30T07:34:54;10.10;96.00
14585;DHT22;7379;51.506;11.876;2022-09-30T07:37:23;10.20;96.10
14585;DHT22;7379;51.506;11.876;2022-09-30T07:39:50;10.20;96.10
14585;DHT22;7379;51.506;11.876;2022-09-30T07:42:18;10.20;96.10
14585;DHT22;7379;51.506;11.876;2022-09-30T07:44:46;10.20;96.10
14585;DHT22;7379;51.506;11.876;2022-09-30T07:47:13;10.20;96.00
14585;DHT22;7379;51.506;11.876;2022-09-30T07:49:41;10.30;96.10
14585;DHT22;7379;51.506;11.876;2022-09-30T07:52:10;10.30;96.20
14585;DHT22;7379;51.506;11.876;2022-09-30T07:54:38;10.30;96.30
14585;DHT22;7379;51.506;11.876;2022-09-30T07:57:05;10.30;96.30
14585;DHT22;7379;51.506;11.876;2022-09-30T07:59:35;10.30;96.20
14585;DHT22;7379;51.506;11.876;2022-09-30T08:02:02;10.40;96.40
14585;DHT22;7379;51.506;11.876;2022-09-30T08:04:29;10.40;96.40
14585;DHT22;7379;51.506;11.876;2022-09-30T08:06:58;10.40;96.40
14585;DHT22;7379;51.506;11.876;2022-09-30T08:09:28;10.40;96.40
14585;DHT22;7379;51.506;11.876;2022-09-30T08:11:55;10.40;96.40
14585;DHT22;7379;51.506;11.876;2022-09-30T08:14:23;10.40;96.40
14585;DHT22;7379;51.506;11.876;2022-09-30T08:16:50;10.50;96.40
14585;DHT22;7379;51.506;11.876;2022-09-30T08:19:19;10.50;96.40
14585;DHT22;7379;51.506;11.876;2022-09-30T08:21:46;10.50;96.40
14585;DHT22;7379;51.506;11.876;2022-09-30T08:24:14;10.50;96.30
14585;DHT22;7379;51.506;11.876;2022-09-30T08:26:42;10.50;96.40
14585;DHT22;7379;51.506;11.876;2022-09-30T08:29:09;10.50;96.30
14585;DHT22;7379;51.506;11.876;2022-09-30T08:31:38;10.50;96.30
14585;DHT22;7379;51.506;11.876;2022-09-30T08:34:05;10.50;96.30
14585;DHT22;7379;51.506;11.876;2022-09-30T08:36:32;10.50;96.30
14585;DHT22;7379;51.506;11.876;2022-09-30T08:38:59;10.50;96.40
14585;DHT22;7379;51.506;11.876;2022-09-30T08:41:43;10.50;96.40
14585;DHT22;7379;51.506;11.876;2022-09-30T08:44:24;10.50;96.40
14585;DHT22;7379;51.506;11.876;2022-09-30T08:47:00;10.50;96.50
14585;DHT22;7379;51.506;11.876;2022-09-30T08:49:43;10.50;96.50
14585;DHT22;7379;51.506;11.876;2022-09-30T08:52:18;10.50;96.50
14585;DHT22;7379;51.506;11.876;2022-09-30T08:54:47;10.50;96.60
14585;DHT22;7379;51.506;11.876;2022-09-30T08:57:16;10.50;96.60
14585;DHT22;7379;51.506;11.876;2022-09-30T08:59:45;10.50;96.70
14585;DHT22;7379;51.506;11.876;2022-09-30T09:02:17;10.50;96.80
14585;DHT22;7379;51.506;11.876;2022-09-30T09:04:47;10.50;96.80
14585;DHT22;7379;51.506;11.876;2022-09-30T09:07:25;10.50;96.80
14585;DHT22;7379;51.506;11.876;2022-09-30T09:10:06;10.50;96.80
14585;DHT22;7379;51.506;11.876;2022-09-30T09:12:44;10.50;96.90
14585;DHT22;7379;51.506;11.876;2022-09-30T09:15:24;10.50;96.90
14585;DHT22;7379;51.506;11.876;2022-09-30T09:18:18;10.60;96.90
14585;DHT22;7379;51.506;11.876;2022-09-30T09:20:53;10.60;96.90
14585;DHT22;7379;51.506;11.876;2022-09-30T09:23:21;10.60;97.00
14585;DHT22;7379;51.506;11.876;2022-09-30T09:25:48;10.60;97.10
14585;DHT22;7379;51.506;11.876;2022-09-30T09:28:27;10.60;97.10
14585;DHT22;7379;51.506;11.876;2022-09-30T09:30:57;10.60;97.40
14585;DHT22;7379;51.506;11.876;2022-09-30T09:33:27;10.60;97.00
14585;DHT22;7379;51.506;11.876;2022-09-30T09:36:02;10.70;97.10
14585;DHT22;7379;51.506;11.876;2022-09-30T09:38:36;10.70;97.20
14585;DHT22;7379;51.506;11.876;2022-09-30T09:41:20;10.70;97.20
14585;DHT22;7379;51.506;11.876;2022-09-30T09:43:55;10.70;97.10
14585;DHT22;7379;51.506;11.876;2022-09-30T09:46:28;10.70;97.30
14585;DHT22;7379;51.506;11.876;2022-09-30T09:49:32;10.70;97.60
14585;DHT22;7379;51.506;11.876;2022-09-30T09:52:23;10.80;97.40
14585;DHT22;7379;51.506;11.876;2022-09-30T09:54:53;10.80;97.30
14585;DHT22;7379;51.506;11.876;2022-09-30T09:57:23;10.80;97.40
14585;DHT22;7379;51.506;11.876;2022-09-30T09:59:58;10.80;97.50
14585;DHT22;7379;51.506;11.876;2022-09-30T10:02:57;10.90;97.40
14585;DHT22;7379;51.506;11.876;2022-09-30T10:05:25;10.90;97.40
14585;DHT22;7379;51.506;11.876;2022-09-30T10:08:08;11.00;97.20
14585;DHT22;7379;51.506;11.876;2022-09-30T10:10:43;11.00;97.30
14585;DHT22;7379;51.506;11.876;2022-09-30T10:13:15;11.00;96.90
14585;DHT22;7379;51.506;11.876;2022-09-30T10:15:44;11.10;97.30
14585;DHT22;7379;51.506;11.876;2022-09-30T10:18:18;11.10;97.30
14585;DHT22;7379;51.506;11.876;2022-09-30T10:20:50;11.10;97.10
14585;DHT22;7379;51.506;11.876;2022-09-30T10:23:19;11.10;97.10
14585;DHT22;7379;51.506;11.876;2022-09-30T10:26:02;11.10;97.00
14585;DHT22;7379;51.506;11.876;2022-09-30T10:28:32;11.20;96.90
14585;DHT22;7379;51.506;11.876;2022-09-30T10:31:03;11.20;97.10
14585;DHT22;7379;51.506;11.876;2022-09-30T10:33:35;11.20;96.80
14585;DHT22;7379;51.506;11.876;2022-09-30T10:36:08;11.20;96.90
14585;DHT22;7379;51.506;11.876;2022-09-30T10:38:44;11.20;96.90
14585;DHT22;7379;51.506;11.876;2022-09-30T10:41:12;11.30;96.60
14585;DHT22;7379;51.506;11.876;2022-09-30T10:43:50;11.30;96.60
14585;DHT22;7379;51.506;11.876;2022-09-30T10:46:22;11.40;96.90
14585;DHT22;7379;51.506;11.876;2022-09-30T10:48:51;11.40;96.50
14585;DHT22;7379;51.506;11.876;2022-09-30T10:51:28;11.40;96.40
14585;DHT22;7379;51.506;11.876;2022-09-30T10:53:55;11.40;96.40
14585;DHT22;7379;51.506;11.876;2022-09-30T10:56:43;11.40;96.40
14585;DHT22;7379;51.506;11.876;2022-09-30T10:59:22;11.50;96.30
14585;DHT22;7379;51.506;11.876;2022-09-30T11:01:55;11.50;96.40
14585;DHT22;7379;51.506;11.876;2022-09-30T11:04:27;11.50;96.10
14585;DHT22;7379;51.506;11.876;2022-09-30T11:07:00;11.60;96.00
14585;DHT22;7379;51.506;11.876;2022-09-30T11:09:34;11.70;96.20
14585;DHT22;7379;51.506;11.876;2022-09-30T11:12:10;11.60;95.90
14585;DHT22;7379;51.506;11.876;2022-09-30T11:14:44;11.60;96.00
14585;DHT22;7379;51.506;11.876;2022-09-30T11:17:24;11.70;95.80
14585;DHT22;7379;51.506;11.876;2022-09-30T11:19:59;11.60;95.90
14585;DHT22;7379;51.506;11.876;2022-09-30T11:22:36;11.60;95.90
14585;DHT22;7379;51.506;11.876;2022-09-30T11:25:05;11.60;96.10
14585;DHT22;7379;51.506;11.876;2022-09-30T11:27:40;11.70;95.70
14585;DHT22;7379;51.506;11.876;2022-09-30T11:30:11;11.70;95.60
14585;DHT22;7379;51.506;11.876;2022-09-30T11:32:49;11.80;95.70
14585;DHT22;7379;51.506;11.876;2022-09-30T11:35:28;11.80;95.70
14585;DHT22;7379;51.506;11.876;2022-09-30T11:38:13;11.90;95.70
14585;DHT22;7379;51.506;11.876;2022-09-30T11:40:49;11.90;95.70
14585;DHT22;7379;51.506;11.876;2022-09-30T11:43:25;11.90;95.60
14585;DHT22;7379;51.506;11.876;2022-09-30T11:46:20;11.90;95.60
14585;DHT22;7379;51.506;11.876;2022-09-30T11:49:00;11.90;95.40
14585;DHT22;7379;51.506;11.876;2022-09-30T11:51:38;12.00;95.40
14585;DHT22;7379;51.506;11.876;2022-09-30T11:54:19;12.10;95.30
14585;DHT22;7379;51.506;11.876;2022-09-30T11:56:52;12.00;95.40
14585;DHT22;7379;51.506;11.876;2022-09-30T11:59:22;12.00;95.40
14585;DHT22;7379;51.506;11.876;2022-09-30T12:01:52;12.10;95.20
14585;DHT22;7379;51.506;11.876;2022-09-30T12:04:26;12.10;94.90
14585;DHT22;7379;51.506;11.876;2022-09-30T12:06:59;12.20;94.80
14585;DHT22;7379;51.506;11.876;2022-09-30T12:09:29;12.20;94.70
14585;DHT22;7379;51.506;11.876;2022-09-30T12:12:00;12.30;94.70
14585;DHT22;7379;51.506;11.876;2022-09-30T12:14:32;12.30;94.50
14585;DHT22;7379;51.506;11.876;2022-09-30T12:17:03;12.30;94.60
14585;DHT22;7379;51.506;11.876;2022-09-30T12:19:37;12.40;94.60
14585;DHT22;7379;51.506;11.876;2022-09-30T12:22:12;12.50;94.40
14585;DHT22;7379;51.506;11.876;2022-09-30T12:24:40;12.70;94.30
14585;DHT22;7379;51.506;11.876;2022-09-30T12:27:15;12.60;94.40
14585;DHT22;7379;51.506;11.876;2022-09-30T12:29:47;12.60;94.50
14585;DHT22;7379;51.506;11.876;2022-09-30T12:33:06;12.60;95.00
14585;DHT22;7379;51.506;11.876;2022-09-30T12:38:49;12.90;94.20
14585;DHT22;7379;51.506;11.876;2022-09-30T12:41:31;13.00;93.60
14585;DHT22;7379;51.506;11.876;2022-09-30T12:44:42;13.00;93.70
14585;DHT22;7379;51.506;11.876;2022-09-30T12:47:29;12.90;94.10
14585;DHT22;7379;51.506;11.876;2022-09-30T12:49:59;13.00;93.90
14585;DHT22;7379;51.506;11.876;2022-09-30T12:52:31;13.00;93.90
14585;DHT22;7379;51.506;11.876;2022-09-30T12:55:05;13.10;93.70
14585;DHT22;7379;51.506;11.876;2022-09-30T12:57:39;13.40;93.40
14585;DHT22;7379;51.506;11.876;2022-09-30T13:00:14;13.30;93.60
14585;DHT22;7379;51.506;11.876;2022-09-30T13:02:43;13.30;93.60
14585;DHT22;7379;51.506;11.876;2022-09-30T13:05:46;13.30;93.70
14585;DHT22;7379;51.506;11.876;2022-09-30T13:08:23;13.40;93.60
14585;DHT22;7379;51.506;11.876;2022-09-30T13:10:57;13.50;93.20
14585;DHT22;7379;51.506;11.876;2022-09-30T13:13:25;13.40;93.50
14585;DHT22;7379;51.506;11.876;2022-09-30T13:15:53;13.50;93.00
14585;DHT22;7379;51.506;11.876;2022-09-30T13:18:58;13.60;93.00
14585;DHT22;7379;51.506;11.876;2022-09-30T13:21:25;13.60;93.00
14585;DHT22;7379;51.506;11.876;2022-09-30T13:23:53;13.50;93.10
14585;DHT22;7379;51.506;11.876;2022-09-30T13:26:36;13.40;93.30
14585;DHT22;7379;51.506;11.876;2022-09-30T13:29:26;13.60;93.10
14585;DHT22;7379;51.506;11.876;2022-09-30T13:32:07;13.70;92.50
14585;DHT22;7379;51.506;11.876;2022-09-30T13:34:54;13.70;92.70
14585;DHT22;7379;51.506;11.876;2022-09-30T13:37:38;13.70;92.40
14585;DHT22;7379;51.506;11.876;2022-09-30T13:40:17;13.70;92.40
14585;DHT22;7379;51.506;11.876;2022-09-30T13:42:52;13.90;91.70
14585;DHT22;7379;51.506;11.876;2022-09-30T13:45:28;14.20;91.30
14585;DHT22;7379;51.506;11.876;2022-09-30T13:48:04;14.30;90.80
14585;DHT22;7379;51.506;11.876;2022-09-30T13:50:39;14.40;90.80
14585;DHT22;7379;51.506;11.876;2022-09-30T13:53:14;14.30;91.00
14585;DHT22;7379;51.506;11.876;2022-09-30T13:55:43;14.50;90.50
14585;DHT22;7379;51.506;11.876;2022-09-30T13:58:31;14.50;90.80
14585;DHT22;7379;51.506;11.876;2022-09-30T14:01:09;14.40;91.00
14585;DHT22;7379;51.506;11.876;2022-09-30T14:04:00;14.40;91.00
14585;DHT22;7379;51.506;11.876;2022-09-30T14:06:39;14.30;91.30
14585;DHT22;7379;51.506;11.876;2022-09-30T14:09:29;14.40;91.20
14585;DHT22;7379;51.506;11.876;2022-09-30T14:12:13;14.30;91.60
14585;DHT22;7379;51.506;11.876;2022-09-30T14:15:10;14.20;92.00
14585;DHT22;7379;51.506;11.876;2022-09-30T14:18:02;14.30;91.30
14585;DHT22;7379;51.506;11.876;2022-09-30T14:20:41;14.50;91.00
14585;DHT22;7379;51.506;11.876;2022-09-30T14:23:13;14.80;90.20
14585;DHT22;7379;51.506;11.876;2022-09-30T14:25:44;14.90;90.00
14585;DHT22;7379;51.506;11.876;2022-09-30T14:28:18;14.80;90.40
14585;DHT22;7379;51.506;11.876;2022-09-30T14:30:59;14.70;90.60
14585;DHT22;7379;51.506;11.876;2022-09-30T14:33:37;14.70;90.60
14585;DHT22;7379;51.506;11.876;2022-09-30T14:36:11;14.60;90.60
14585;DHT22;7379;51.506;11.876;2022-09-30T14:38:38;14.50;90.90
14585;DHT22;7379;51.506;11.876;2022-09-30T14:41:15;14.40;90.90
14585;DHT22;7379;51.506;11.876;2022-09-30T14:43:43;14.30;90.90
14585;DHT22;7379;51.506;11.876;2022-09-30T14:46:23;14.30;91.20
14585;DHT22;7379;51.506;11.876;2022-09-30T14:48:51;14.30;91.10
14585;DHT22;7379;51.506;11.876;2022-09-30T14:51:20;14.30;90.80
14585;DHT22;7379;51.506;11.876;2022-09-30T14:53:52;14.30;91.00
14585;DHT22;7379;51.506;11.876;2022-09-30T14:56:21;14.40;90.80
14585;DHT22;7379;51.506;11.876;2022-09-30T14:58:48;14.30;91.10
14585;DHT22;7379;51.506;11.876;2022-09-30T15:01:19;14.40;90.50
14585;DHT22;7379;51.506;11.876;2022-09-30T15:03:51;14.50;90.50
14585;DHT22;7379;51.506;11.876;2022-09-30T15:06:22;14.70;90.20
14585;DHT22;7379;51.506;11.876;2022-09-30T15:08:52;14.80;90.20
14585;DHT22;7379;51.506;11.876;2022-09-30T15:11:25;14.80;90.80
14585;DHT22;7379;51.506;11.876;2022-09-30T15:13:57;14.70;90.60
14585;DHT22;7379;51.506;11.876;2022-09-30T15:16:27;14.90;90.00
14585;DHT22;7379;51.506;11.876;2022-09-30T15:18:55;15.30;89.60
14585;DHT22;7379;51.506;11.876;2022-09-30T15:21:23;15.50;88.30
14585;DHT22;7379;51.506;11.876;2022-09-30T15:23:53;15.80;87.60
14585;DHT22;7379;51.506;11.876;2022-09-30T15:26:22;15.80;88.20
14585;DHT22;7379;51.506;11.876;2022-09-30T15:28:50;15.70;88.50
14585;DHT22;7379;51.506;11.876;2022-09-30T15:31:21;15.50;90.00
14585;DHT22;7379;51.506;11.876;2022-09-30T15:34:03;15.30;90.00
14585;DHT22;7379;51.506;11.876;2022-09-30T15:36:30;15.20;89.60
14585;DHT22;7379;51.506;11.876;2022-09-30T15:38:58;15.10;90.00
14585;DHT22;7379;51.506;11.876;2022-09-30T15:41:25;15.00;90.20
14585;DHT22;7379;51.506;11.876;2022-09-30T15:43:52;14.90;90.20
14585;DHT22;7379;51.506;11.876;2022-09-30T15:46:27;14.70;90.40
14585;DHT22;7379;51.506;11.876;2022-09-30T15:48:58;14.60;90.70
14585;DHT22;7379;51.506;11.876;2022-09-30T15:51:31;14.50;90.80
14585;DHT22;7379;51.506;11.876;2022-09-30T15:54:00;14.40;90.80
14585;DHT22;7379;51.506;11.876;2022-09-30T15:56:32;14.40;90.70
14585;DHT22;7379;51.506;11.876;2022-09-30T15:59:02;14.40;90.80
14585;DHT22;7379;51.506;11.876;2022-09-30T16:01:40;14.30;91.00
14585;DHT22;7379;51.506;11.876;2022-09-30T16:04:13;14.30;91.20
14585;DHT22;7379;51.506;11.876;2022-09-30T16:06:50;14.20;91.30
14585;DHT22;7379;51.506;11.876;2022-09-30T16:09:21;14.10;91.50
14585;DHT22;7379;51.506;11.876;2022-09-30T16:11:57;14.10;91.60
14585;DHT22;7379;51.506;11.876;2022-09-30T16:14:27;14.00;91.70